Time;durP1;ratioP1;P1;durP2;ratioP2;P2;SDS_P1;SDS_P2;PMS_P1;PMS_P2;Temp;Humidity;BMP_temperature;BMP_pressure;BME280_temperature;BME280_humidity;BME280_pressure;Samples;Min_cycle;Max_cycle;Signal;HPM_P1;HPM_P2
2023/03/06 00:02:11;;;;;;;11.85;7.45;;;;;;;3.41;65.49;95716.47;5094095;28;20048;-62
2023/03/06 00:04:42;;;;;;;9.85;6.95;;;;;;;3.32;65.54;95721.84;5094109;28;20135;-63
2023/03/06 00:07:10;;;;;;;13.00;6.97;;;;;;;3.24;64.94;95720.28;5094363;28;20044;-63
2023/03/06 00:09:39;;;;;;;13.00;6.85;;;;;;;3.16;65.82;95725.59;5094180;28;20044;-63
2023/03/06 00:12:07;;;;;;;11.82;7.05;;;;;;;3.13;66.50;95719.66;5094025;28;20044;-63
2023/03/06 00:14:37;;;;;;;13.55;6.95;;;;;;;3.10;67.10;95722.31;5093790;28;20054;-63
2023/03/06 00:17:06;;;;;;;12.43;7.32;;;;;;;3.12;67.43;95725.69;5093880;28;20429;-63
2023/03/06 00:19:34;;;;;;;9.57;6.13;;;;;;;3.09;67.97;95723.19;5093710;28;20109;-63
2023/03/06 00:22:04;;;;;;;9.95;6.70;;;;;;;3.03;68.01;95727.63;5093682;28;20143;-63
2023/03/06 00:24:32;;;;;;;;;;;;;;;2.92;67.18;95732.13;5094214;28;20493;-63
2023/03/06 00:27:00;;;;;;;10.02;6.68;;;;;;;2.77;67.59;95725.56;5092827;28;19927;-63
2023/03/06 00:29:28;;;;;;;9.15;5.50;;;;;;;2.72;67.28;95736.00;5093737;28;20044;-63
2023/03/06 00:31:56;;;;;;;11.13;6.10;;;;;;;2.67;67.48;95730.06;5093596;28;20040;-62
2023/03/06 00:34:29;;;;;;;9.25;5.90;;;;;;;2.52;67.66;95738.94;5093695;28;20447;-63
2023/03/06 00:36:57;;;;;;;9.23;6.00;;;;;;;2.51;68.37;95730.38;5093502;28;20044;-63
2023/03/06 00:39:26;;;;;;;10.20;5.63;;;;;;;2.46;68.75;95734.75;5093462;28;20489;-63
2023/03/06 00:41:54;;;;;;;9.27;5.95;;;;;;;2.42;68.66;95732.25;5093474;28;20071;-63
2023/03/06 00:44:21;;;;;;;8.25;5.60;;;;;;;2.39;68.83;95735.75;5093374;28;20052;-63
2023/03/06 00:46:48;;;;;;;46.90;26.00;;;;;;;2.31;69.62;95733.31;5093442;28;20043;-63
2023/03/06 00:49:15;;;;;;;14.57;8.82;;;;;;;2.33;69.62;95735.84;5093534;28;20093;-63
2023/03/06 00:51:44;;;;;;;12.98;8.98;;;;;;;2.31;69.82;95737.59;5093431;28;20048;-63
2023/03/06 00:54:12;;;;;;;9.48;7.25;;;;;;;2.23;69.57;95738.59;5093455;28;20052;-63
2023/03/06 00:56:39;;;;;;;11.23;6.78;;;;;;;2.17;69.88;95738.72;5093373;28;20044;-64
2023/03/06 00:59:06;;;;;;;11.30;9.20;;;;;;;2.01;70.21;95730.38;5093125;28;20079;-63
2023/03/06 01:01:33;;;;;;;10.80;6.63;;;;;;;1.97;70.98;95741.63;5093255;28;20101;-62
2023/03/06 01:04:00;;;;;;;11.15;7.07;;;;;;;1.95;71.09;95736.50;5093234;28;20052;-63
2023/03/06 01:06:27;;;;;;;11.50;7.28;;;;;;;1.93;70.98;95748.59;5093075;28;20083;-62
2023/03/06 01:08:56;;;;;;;14.93;6.25;;;;;;;1.82;70.78;95742.72;5093446;28;20386;-63
2023/03/06 01:11:23;;;;;;;10.25;6.25;;;;;;;1.74;70.85;95742.84;5093488;28;20073;-63
2023/03/06 01:13:50;;;;;;;11.70;6.18;;;;;;;1.73;70.82;95744.59;5093021;28;20048;-63
2023/03/06 01:16:20;;;;;;;11.80;6.85;;;;;;;1.66;71.01;95739.56;5093205;28;20097;-62
2023/03/06 01:18:47;;;;;;;8.73;6.05;;;;;;;1.57;70.93;95737.97;5093219;28;20040;-63
2023/03/06 01:21:15;;;;;;;9.07;5.88;;;;;;;1.51;70.64;95744.06;5093134;28;20485;-63
2023/03/06 01:23:42;;;;;;;8.30;5.85;;;;;;;1.44;70.92;95742.47;5093036;28;20048;-63
2023/03/06 01:26:11;;;;;;;8.48;5.93;;;;;;;1.32;71.10;95739.16;5092997;28;20052;-62
2023/03/06 01:28:39;;;;;;;10.88;7.00;;;;;;;1.31;71.17;95745.22;5093106;28;20383;-63
2023/03/06 01:31:07;;;;;;;12.77;7.35;;;;;;;1.28;71.29;95741.81;5093186;28;20052;-63
2023/03/06 01:33:34;;;;;;;11.57;7.57;;;;;;;1.27;71.59;95743.56;5093072;28;20054;-63
2023/03/06 01:36:04;;;;;;;12.80;6.35;;;;;;;1.29;71.62;95741.78;5092964;28;20386;-63
2023/03/06 01:38:31;;;;;;;8.38;6.05;;;;;;;1.28;72.11;95741.81;5096354;28;20052;-63
2023/03/06 01:40:59;;;;;;;8.40;5.50;;;;;;;1.25;72.87;95740.13;5097055;28;20048;-63
2023/03/06 01:43:31;;;;;;;15.48;7.07;;;;;;;1.22;73.39;95742.75;5096931;28;20040;-63
2023/03/06 01:46:41;;;;;;;11.77;7.05;;;;;;;1.28;73.77;95745.25;5096745;28;20048;-62
2023/03/06 01:49:13;;;;;;;10.07;6.50;;;;;;;1.28;73.83;95745.25;5089748;28;20074;-63
2023/03/06 01:51:45;;;;;;;10.40;6.65;;;;;;;1.35;74.01;95746.00;5096660;28;20477;-62
2023/03/06 01:54:17;;;;;;;10.15;6.97;;;;;;;1.39;74.08;95740.78;5096935;28;20054;-63
2023/03/06 01:56:49;;;;;;;10.02;6.53;;;;;;;1.47;74.30;95744.97;5096591;28;20127;-63
2023/03/06 01:59:20;;;;;;;11.65;6.45;;;;;;;1.48;73.96;95738.97;5096407;28;20451;-63
2023/03/06 02:01:48;;;;;;;10.68;6.63;;;;;;;1.55;73.89;95744.88;5096595;28;20052;-62
2023/03/06 02:04:16;;;;;;;10.90;7.50;;;;;;;1.61;74.10;95747.34;5096467;28;20425;-62
2023/03/06 02:06:43;;;;;;;13.13;6.45;;;;;;;1.56;74.02;95739.69;5096408;28;20083;-62
2023/03/06 02:09:12;;;;;;;10.50;7.03;;;;;;;1.46;74.54;95746.72;5096507;28;20097;-63
2023/03/06 02:11:42;;;;;;;9.73;6.90;;;;;;;1.49;75.00;95745.81;5096303;28;20044;-63
2023/03/06 02:14:11;;;;;;;;;;;;;;;1.56;75.37;95756.91;5096869;28;20444;-63
2023/03/06 02:16:41;;;;;;;10.43;5.97;;;;;;;1.55;75.08;95755.19;5096338;28;19920;-63
2023/03/06 02:19:17;;;;;;;6.78;5.22;;;;;;;1.56;75.59;95760.31;5096246;28;20076;-62
2023/03/06 02:21:45;;;;;;;11.65;5.90;;;;;;;1.59;75.59;95764.56;5096205;28;20086;-63
2023/03/06 02:24:22;;;;;;;15.35;6.82;;;;;;;1.53;75.73;95764.69;5096219;28;20052;-63
2023/03/06 02:26:52;;;;;;;10.73;6.43;;;;;;;1.56;75.86;95768.03;5096151;28;20512;-62
2023/03/06 02:29:24;;;;;;;11.32;6.63;;;;;;;1.61;75.81;95768.84;5096111;28;20068;-63
2023/03/06 02:31:51;;;;;;;52.95;25.80;;;;;;;1.63;75.77;95768.81;5095898;28;20086;-62
2023/03/06 02:34:56;;;;;;;23.20;10.90;;;;;;;1.57;75.32;95771.47;5095776;28;20452;-62
2023/03/06 02:37:25;;;;;;;9.82;6.97;;;;;;;1.41;75.59;95763.97;5033600;28;20580;-63
2023/03/06 02:39:59;;;;;;;12.00;7.35;;;;;;;1.39;75.44;95769.13;5033651;28;20053;-63
2023/03/06 02:42:28;;;;;;;12.70;7.68;;;;;;;1.38;75.56;95776.88;5067447;28;20464;-63
2023/03/06 02:44:57;;;;;;;12.65;6.75;;;;;;;1.38;75.85;95776.88;5095923;28;20405;-63
2023/03/06 02:47:24;;;;;;;13.25;7.40;;;;;;;1.32;75.67;95782.97;5096063;28;20076;-62
2023/03/06 02:49:51;;;;;;;12.30;6.20;;;;;;;1.25;75.21;95784.81;5094760;28;20551;-63
2023/03/06 02:52:18;;;;;;;12.80;6.93;;;;;;;1.21;74.92;95777.13;5095840;28;20048;-63
2023/03/06 02:54:46;;;;;;;13.85;7.63;;;;;;;1.19;75.32;95784.88;5095561;28;20044;-62
2023/03/06 02:57:13;;;;;;;9.60;6.75;;;;;;;1.18;75.30;95783.19;5095236;28;20048;-63
2023/03/06 02:59:42;;;;;;;11.45;7.72;;;;;;;1.11;74.61;95781.53;5095471;28;20441;-63
2023/03/06 03:02:09;;;;;;;11.50;8.48;;;;;;;1.04;74.43;95782.47;5095659;28;20054;-62
2023/03/06 03:04:36;;;;;;;13.70;8.18;;;;;;;0.86;75.14;95790.44;5095635;28;20539;-63
2023/03/06 03:07:03;;;;;;;9.70;7.07;;;;;;;0.78;74.72;95793.97;5095220;28;20048;-63
2023/03/06 03:09:35;;;;;;;10.65;7.53;;;;;;;0.55;74.77;95795.91;5095103;28;20048;-63
2023/03/06 03:12:03;;;;;;;12.98;8.25;;;;;;;0.45;75.22;95795.16;5095211;28;20048;-62
2023/03/06 03:14:30;;;;;;;11.10;7.85;;;;;;;0.48;75.44;95796.84;5095098;28;20097;-63
2023/03/06 03:16:59;;;;;;;12.95;7.60;;;;;;;0.45;74.82;95807.19;5095211;28;20055;-62
2023/03/06 03:19:26;;;;;;;13.15;8.07;;;;;;;0.24;75.08;95807.34;5095162;28;20051;-62
2023/03/06 03:21:53;;;;;;;13.93;8.25;;;;;;;0.03;75.57;95800.66;5095204;28;20068;-63
2023/03/06 03:24:20;;;;;;;14.68;8.80;;;;;;;-0.05;76.18;95810.16;5095005;28;20116;-62
2023/03/06 03:26:47;;;;;;;12.43;8.65;;;;;;;-0.05;76.79;95807.59;5094914;28;20110;-63
2023/03/06 03:29:14;;;;;;;11.82;6.93;;;;;;;0.00;76.46;95808.44;5094897;28;20051;-63
2023/03/06 03:31:41;;;;;;;15.40;7.60;;;;;;;-0.01;75.98;95807.56;5094912;28;20082;-62
2023/03/06 03:34:10;;;;;;;11.52;7.38;;;;;;;-0.04;76.33;95801.56;5095071;28;20040;-63
2023/03/06 03:36:38;;;;;;;13.13;7.75;;;;;;;-0.04;75.95;95799.00;5095076;28;20044;-61
2023/03/06 03:39:05;;;;;;;15.60;7.68;;;;;;;-0.16;75.99;95799.94;5094766;28;20044;-64
2023/03/06 03:41:33;;;;;;;19.38;8.02;;;;;;;-0.24;76.51;95800.00;5094728;28;20048;-63
2023/03/06 03:44:00;;;;;;;13.88;8.55;;;;;;;-0.30;76.89;95793.19;5094664;28;20044;-64
2023/03/06 03:46:27;;;;;;;15.23;8.52;;;;;;;-0.41;76.87;95801.00;5094477;28;20043;-63
2023/03/06 03:48:55;;;;;;;14.93;8.95;;;;;;;-0.53;77.09;95796.78;5094425;28;20040;-62
2023/03/06 03:51:23;;;;;;;10.23;7.70;;;;;;;-0.57;76.69;95805.34;5094512;28;20139;-62
2023/03/06 03:53:51;;;;;;;14.15;8.45;;;;;;;-0.64;76.59;95803.69;5094389;28;20044;-61
2023/03/06 03:56:18;;;;;;;15.05;8.65;;;;;;;-0.64;77.06;95801.97;5094283;28;20055;-61
2023/03/06 03:58:46;;;;;;;15.32;8.38;;;;;;;-0.64;77.10;95804.56;5094038;28;20044;-61
2023/03/06 04:01:13;;;;;;;11.23;7.15;;;;;;;-0.60;77.58;95805.38;5094086;28;20494;-61
2023/03/06 04:03:40;;;;;;;14.95;8.32;;;;;;;-0.53;77.59;95807.06;5094134;28;20109;-62
2023/03/06 04:06:07;;;;;;;13.05;8.45;;;;;;;-0.57;77.22;95805.34;5094081;28;20044;-63
2023/03/06 04:08:36;;;;;;;11.70;7.60;;;;;;;-0.55;77.61;95807.91;5094177;28;20127;-64
2023/03/06 04:11:04;;;;;;;25.85;14.70;;;;;;;-0.54;77.42;95823.31;5094403;28;20087;-63
2023/03/06 04:13:31;;;;;;;39.90;20.58;;;;;;;-0.54;77.35;95825.91;5094018;28;20052;-64
2023/03/06 04:15:59;;;;;;;49.53;25.38;;;;;;;-0.52;77.47;95831.03;5094121;28;20097;-63
2023/03/06 04:18:27;;;;;;;33.10;17.95;;;;;;;-0.44;77.39;95838.69;5093975;28;20051;-64
2023/03/06 04:20:54;;;;;;;26.77;14.05;;;;;;;-0.42;77.53;95834.41;5093930;28;20093;-63
2023/03/06 04:23:23;;;;;;;16.00;9.23;;;;;;;-0.43;77.13;95830.13;5093916;28;20048;-62
2023/03/06 04:25:52;;;;;;;17.25;10.30;;;;;;;-0.44;76.91;95829.28;5093941;28;20047;-63
2023/03/06 04:28:20;;;;;;;15.48;9.80;;;;;;;-0.48;77.40;95827.56;5093637;28;20048;-64
2023/03/06 04:30:50;;;;;;;14.85;8.45;;;;;;;-0.49;77.38;95825.88;5093802;28;20109;-63
2023/03/06 04:33:20;;;;;;;14.63;8.07;;;;;;;-0.45;76.90;95829.28;5093719;28;20040;-63
2023/03/06 04:35:49;;;;;;;11.88;7.60;;;;;;;-0.44;76.75;95834.44;5093535;28;20044;-63
2023/03/06 04:38:16;;;;;;;12.25;7.97;;;;;;;-0.44;76.95;95842.13;5093558;28;20048;-63
2023/03/06 04:40:43;;;;;;;11.98;8.10;;;;;;;-0.43;76.75;95842.97;5093629;28;20052;-63
2023/03/06 04:43:12;;;;;;;13.55;7.70;;;;;;;-0.44;76.72;95838.69;5093484;28;20071;-63
2023/03/06 04:45:39;;;;;;;14.43;9.27;;;;;;;-0.47;76.97;95844.72;5093561;28;20489;-63
2023/03/06 04:48:07;;;;;;;11.25;8.02;;;;;;;-0.52;77.18;95838.75;5093447;28;20127;-62
2023/03/06 04:50:36;;;;;;;14.27;8.65;;;;;;;-0.54;77.03;95845.63;5093551;28;20048;-62
2023/03/06 04:53:04;;;;;;;13.82;8.73;;;;;;;-0.58;77.45;95859.31;5093251;28;20479;-63
2023/03/06 04:55:32;;;;;;;14.85;8.10;;;;;;;-0.56;77.43;95852.47;5093316;28;20570;-62
2023/03/06 04:58:00;;;;;;;16.83;8.45;;;;;;;-0.66;77.12;95865.34;5093154;28;20078;-63
2023/03/06 05:00:30;;;;;;;11.93;7.78;;;;;;;-0.60;77.74;95872.16;5093326;28;20044;-63
2023/03/06 05:02:59;;;;;;;15.70;9.48;;;;;;;-0.57;77.89;95879.03;5093223;28;20406;-62
2023/03/06 05:05:29;;;;;;;14.43;8.95;;;;;;;-0.58;77.35;95885.88;5093291;28;20044;-63
2023/03/06 05:07:57;;;;;;;15.82;10.25;;;;;;;-0.60;77.53;95879.88;5093164;28;20044;-62
2023/03/06 05:10:25;;;;;;;15.50;10.50;;;;;;;-0.60;77.61;95879.88;5093114;28;20048;-64
2023/03/06 05:12:53;;;;;;;16.70;10.48;;;;;;;-0.52;78.21;95885.84;5092511;28;20048;-63
2023/03/06 05:15:20;;;;;;;16.92;9.05;;;;;;;-0.37;78.33;95893.50;5092950;28;20044;-63
2023/03/06 05:17:49;;;;;;;13.10;8.00;;;;;;;-0.24;77.72;95904.56;5093055;28;20144;-63
2023/03/06 05:20:18;;;;;;;16.98;8.38;;;;;;;-0.14;77.08;95898.53;5093071;28;20043;-63
2023/03/06 05:22:45;;;;;;;14.27;8.57;;;;;;;-0.03;76.98;95906.19;5093018;28;20494;-63
2023/03/06 05:25:13;;;;;;;12.55;8.43;;;;;;;0.05;76.71;95917.25;5093120;28;20127;-62
2023/03/06 05:27:40;;;;;;;14.32;7.20;;;;;;;0.12;76.67;95913.78;5092931;28;20052;-64
2023/03/06 05:30:11;;;;;;;12.57;8.38;;;;;;;0.17;76.03;95916.31;5093199;28;20051;-64
2023/03/06 05:32:38;;;;;;;13.93;8.18;;;;;;;0.29;76.17;95910.22;5093144;28;20048;-61
2023/03/06 05:35:08;;;;;;;13.77;9.60;;;;;;;0.67;76.42;95918.53;5092841;28;20044;-64
2023/03/06 05:37:35;;;;;;;15.88;8.23;;;;;;;1.80;74.35;95919.88;5093065;28;20044;-62
2023/03/06 05:40:08;;;;;;;11.15;7.03;;;;;;;3.06;68.50;95923.09;5092893;28;20087;-62
2023/03/06 05:42:35;;;;;;;15.25;9.75;;;;;;;4.36;63.72;95936.03;5092981;28;20059;-65
2023/03/06 05:45:04;;;;;;;13.45;6.97;;;;;;;5.49;60.16;95923.72;5092844;28;20123;-64
2023/03/06 05:47:31;;;;;;;11.32;6.25;;;;;;;6.34;55.58;95925.63;5092806;28;20490;-63
2023/03/06 05:49:59;;;;;;;7.60;4.90;;;;;;;6.91;53.24;95935.09;5092757;28;20044;-63
2023/03/06 05:52:28;;;;;;;13.65;5.88;;;;;;;7.64;51.23;95947.34;5092848;28;20547;-64
2023/03/06 05:54:55;;;;;;;8.02;4.90;;;;;;;8.51;48.97;95938.94;5092762;28;20040;-63
2023/03/06 05:57:28;;;;;;;7.35;5.55;;;;;;;9.52;47.39;95944.44;5092579;28;20501;-64
2023/03/06 05:59:55;;;;;;;9.40;5.25;;;;;;;10.56;45.18;95943.31;5092809;28;20446;-64
2023/03/06 06:02:23;;;;;;;6.60;5.30;;;;;;;11.39;42.57;95955.91;5092783;28;20045;-64
2023/03/06 06:04:50;;;;;;;6.93;5.03;;;;;;;12.08;41.08;95948.03;5092626;28;20044;-63
2023/03/06 06:07:17;;;;;;;7.60;5.45;;;;;;;12.54;39.76;95946.44;5092629;28;20125;-63
2023/03/06 06:09:46;;;;;;;8.95;6.40;;;;;;;13.21;37.54;95954.97;5092795;28;20044;-64
2023/03/06 06:12:14;;;;;;;9.07;5.85;;;;;;;13.74;36.99;95962.44;5092839;28;20459;-63
2023/03/06 06:14:41;;;;;;;9.88;5.75;;;;;;;14.14;36.49;95953.91;5092517;28;20456;-63
2023/03/06 06:17:11;;;;;;;12.07;5.55;;;;;;;14.66;35.72;95952.41;5092590;28;20048;-63
2023/03/06 06:19:39;;;;;;;7.85;5.72;;;;;;;15.24;33.52;95956.66;5092588;28;20048;-63
2023/03/06 06:22:07;;;;;;;8.90;6.18;;;;;;;15.76;32.71;95961.16;5092678;28;20500;-63
2023/03/06 06:24:34;;;;;;;8.68;5.38;;;;;;;16.36;32.65;95965.88;5094188;28;20040;-63
2023/03/06 06:27:03;;;;;;;7.95;5.28;;;;;;;16.92;31.85;95964.56;5095964;28;20048;-63
2023/03/06 06:29:30;;;;;;;8.13;5.32;;;;;;;17.25;32.00;95970.16;5096065;28;20584;-63
2023/03/06 06:31:58;;;;;;;6.93;5.28;;;;;;;17.48;30.91;95979.00;5096085;28;20048;-63
2023/03/06 06:34:26;;;;;;;9.40;6.00;;;;;;;18.02;29.67;95976.72;5095950;28;20048;-62
2023/03/06 06:36:54;;;;;;;7.72;5.65;;;;;;;17.90;30.03;95990.88;5095928;28;20136;-63
2023/03/06 06:39:23;;;;;;;8.45;6.43;;;;;;;17.37;31.60;95986.91;5095942;28;20054;-63
2023/03/06 06:41:51;;;;;;;11.77;7.53;;;;;;;16.63;31.74;95986.00;5096164;28;20052;-63
2023/03/06 06:44:20;;;;;;;10.32;7.00;;;;;;;16.39;31.22;95994.69;5095783;28;20051;-62
2023/03/06 06:46:49;;;;;;;11.75;6.82;;;;;;;16.59;31.12;96003.88;5095737;28;20052;-62
2023/03/06 06:49:17;;;;;;;9.13;6.60;;;;;;;16.79;31.10;95999.78;5095822;28;20048;-62
2023/03/06 06:51:45;;;;;;;9.38;6.55;;;;;;;17.25;30.58;95994.78;5095707;28;20044;-62
2023/03/06 06:54:13;;;;;;;8.82;6.45;;;;;;;17.77;29.44;95999.78;5095860;28;20052;-63
2023/03/06 06:56:40;;;;;;;12.57;6.90;;;;;;;18.21;28.63;96000.94;5095460;28;20455;-62
2023/03/06 06:59:07;;;;;;;7.45;6.35;;;;;;;19.02;27.40;96005.22;5095489;28;20044;-63
2023/03/06 07:01:35;;;;;;;9.00;6.45;;;;;;;19.51;27.07;96012.81;5095563;28;20044;-63
2023/03/06 07:04:03;;;;;;;9.10;7.00;;;;;;;19.83;26.48;96010.09;5095432;28;20093;-63
2023/03/06 07:06:30;;;;;;;10.63;7.22;;;;;;;19.21;27.21;96011.69;5095390;28;20149;-63
2023/03/06 07:08:57;;;;;;;11.40;6.75;;;;;;;19.18;26.85;96007.50;5095494;28;20044;-63
2023/03/06 07:11:24;;;;;;;11.77;7.22;;;;;;;19.34;26.76;96006.22;5095329;28;20478;-63
2023/03/06 07:13:51;;;;;;;9.85;7.07;;;;;;;19.02;26.33;96008.69;5095218;28;20088;-63
2023/03/06 07:16:19;;;;;;;9.57;7.28;;;;;;;19.09;26.25;96014.38;5095225;28;20047;-62
2023/03/06 07:18:47;;;;;;;11.02;7.10;;;;;;;19.21;26.86;96017.00;5095065;28;20128;-62
2023/03/06 07:21:15;;;;;;;10.18;6.97;;;;;;;19.12;26.21;96008.84;5095068;28;20131;-62
2023/03/06 07:23:42;;;;;;;11.25;7.40;;;;;;;18.73;26.97;96008.41;5095121;28;20141;-63
2023/03/06 07:26:11;;;;;;;10.05;7.72;;;;;;;19.10;27.34;96007.25;5094961;28;20079;-62
2023/03/06 07:28:38;;;;;;;11.45;7.95;;;;;;;19.14;26.21;96011.38;5094742;28;20054;-63
2023/03/06 07:31:10;;;;;;;9.90;7.75;;;;;;;18.28;26.26;96008.31;5094859;28;20048;-62
2023/03/06 07:33:37;;;;;;;10.48;8.00;;;;;;;17.78;28.37;96011.19;5094948;28;20136;-62
2023/03/06 07:36:09;;;;;;;10.02;7.75;;;;;;;17.18;28.67;96004.97;5094292;28;20040;-62
2023/03/06 07:38:36;;;;;;;11.77;8.13;;;;;;;16.71;28.21;96012.72;5094585;28;20044;-62
2023/03/06 07:41:04;;;;;;;10.98;8.10;;;;;;;16.10;29.28;96019.53;5094668;28;20048;-62
2023/03/06 07:43:31;;;;;;;11.82;8.40;;;;;;;15.69;30.09;96017.88;5094566;28;20067;-62
2023/03/06 07:46:00;;;;;;;14.13;7.65;;;;;;;15.56;29.17;96010.78;5094477;28;20054;-63
2023/03/06 07:48:27;;;;;;;12.90;8.18;;;;;;;15.12;30.45;96013.63;5094809;28;20505;-62
2023/03/06 07:51:00;;;;;;;13.00;8.35;;;;;;;14.45;31.17;96019.56;5094592;28;20117;-62
2023/03/06 07:53:29;;;;;;;10.85;8.13;;;;;;;14.15;33.61;96016.09;5094432;28;20052;-62
2023/03/06 07:55:56;;;;;;;15.88;8.48;;;;;;;14.08;31.61;96010.34;5094499;28;20523;-62
2023/03/06 07:58:23;;;;;;;14.05;8.57;;;;;;;13.94;29.99;96015.59;5094265;28;20102;-62
2023/03/06 08:00:51;;;;;;;12.25;8.20;;;;;;;13.57;32.88;96021.25;5094381;28;20059;-62
2023/03/06 08:03:18;;;;;;;11.75;9.00;;;;;;;13.22;32.18;96019.69;5094207;28;20087;-62
2023/03/06 08:05:45;;;;;;;11.45;7.72;;;;;;;13.43;32.93;96017.63;5094318;28;20131;-63
2023/03/06 08:08:12;;;;;;;11.63;8.40;;;;;;;13.40;33.48;96020.44;5094182;28;20083;-64
2023/03/06 08:10:40;;;;;;;10.90;8.32;;;;;;;13.48;33.53;96022.59;5094033;28;20055;-63
2023/03/06 08:13:07;;;;;;;14.65;8.52;;;;;;;13.46;33.24;96022.69;5094127;28;20044;-63
2023/03/06 08:15:35;;;;;;;14.77;8.35;;;;;;;13.64;34.54;96028.69;5094164;28;20135;-63
2023/03/06 08:18:02;;;;;;;14.73;8.32;;;;;;;13.90;32.65;96028.06;5094077;28;20048;-63
2023/03/06 08:20:29;;;;;;;12.18;8.73;;;;;;;13.83;31.86;96027.59;5093910;28;20060;-63
2023/03/06 08:22:56;;;;;;;13.15;8.38;;;;;;;13.84;33.89;96028.44;5094337;28;20048;-64
2023/03/06 08:25:24;;;;;;;17.45;8.40;;;;;;;14.02;33.00;96023.84;5093912;28;20523;-64
2023/03/06 08:27:52;;;;;;;12.10;8.23;;;;;;;14.19;32.84;96020.22;5093713;28;20048;-64
2023/03/06 08:30:20;;;;;;;18.58;8.68;;;;;;;14.19;34.22;96017.59;5093977;28;20056;-63
2023/03/06 08:32:47;;;;;;;12.70;8.65;;;;;;;14.28;32.55;96024.94;5093771;28;20052;-64
2023/03/06 08:35:15;;;;;;;12.23;7.85;;;;;;;14.66;34.20;96026.09;5093746;28;20139;-64
2023/03/06 08:37:42;;;;;;;12.45;8.57;;;;;;;14.79;33.07;96020.09;5094088;28;20048;-63
2023/03/06 08:40:11;;;;;;;14.30;8.57;;;;;;;14.53;31.15;96025.19;5093977;28;20044;-64
2023/03/06 08:42:38;;;;;;;13.30;8.57;;;;;;;14.57;32.83;96028.47;5093662;28;20486;-64
2023/03/06 08:45:08;;;;;;;14.13;8.90;;;;;;;14.13;34.24;96033.75;5093671;28;20079;-63
2023/03/06 08:47:35;;;;;;;12.55;8.60;;;;;;;14.03;34.39;96030.84;5092639;28;20083;-64
2023/03/06 08:50:03;;;;;;;13.68;8.40;;;;;;;14.08;34.40;96034.00;5093655;28;20055;-63
2023/03/06 08:52:30;;;;;;;13.23;8.90;;;;;;;13.76;34.52;96029.72;5093750;28;20044;-63
2023/03/06 08:55:02;;;;;;;13.23;8.88;;;;;;;13.92;33.18;96025.34;5093370;28;20044;-63
2023/03/06 08:57:29;;;;;;;15.05;8.57;;;;;;;13.83;35.12;96027.59;5093165;28;20140;-64
2023/03/06 08:59:56;;;;;;;15.13;8.50;;;;;;;14.07;34.70;96029.69;5093279;28;20102;-63
2023/03/06 09:02:25;;;;;;;15.90;8.50;;;;;;;13.75;36.65;96032.44;5093237;28;20050;-64
2023/03/06 09:04:52;;;;;;;11.38;8.60;;;;;;;13.59;35.59;96036.00;5093263;28;20059;-63
2023/03/06 09:07:19;;;;;;;13.52;9.07;;;;;;;13.59;35.33;96025.50;5093510;28;20127;-63
2023/03/06 09:09:47;;;;;;;18.08;9.15;;;;;;;13.47;36.59;96026.16;5093499;28;20044;-63
2023/03/06 09:12:14;;;;;;;16.00;8.35;;;;;;;13.59;36.89;96028.13;5093188;28;20083;-63
2023/03/06 09:14:41;;;;;;;12.15;8.70;;;;;;;13.75;35.80;96024.56;5093540;28;20056;-63
2023/03/06 09:17:08;;;;;;;12.55;8.45;;;;;;;13.43;36.86;96028.13;5093290;28;20075;-63
2023/03/06 09:19:37;;;;;;;10.75;8.10;;;;;;;13.34;38.50;96023.41;5093319;28;20460;-63
2023/03/06 09:22:04;;;;;;;11.57;9.02;;;;;;;13.65;36.80;96016.41;5093370;28;20048;-63
2023/03/06 09:24:31;;;;;;;12.85;8.55;;;;;;;13.63;35.41;96021.72;5093093;28;20105;-63
2023/03/06 09:26:59;;;;;;;12.25;7.95;;;;;;;13.34;34.94;96012.91;5093112;28;20148;-63
2023/03/06 09:29:26;;;;;;;10.88;8.80;;;;;;;13.37;37.55;96015.34;5093217;28;20048;-63
2023/03/06 09:31:53;;;;;;;15.73;8.82;;;;;;;13.43;37.13;96008.88;5093040;28;20064;-63
2023/03/06 09:34:20;;;;;;;12.35;8.93;;;;;;;13.43;36.48;96006.25;5092887;28;20048;-62
2023/03/06 09:36:49;;;;;;;13.77;8.55;;;;;;;12.91;34.76;96018.81;5093067;28;20094;-63
2023/03/06 09:39:16;;;;;;;13.60;8.82;;;;;;;13.02;34.25;96021.66;5092990;28;20129;-63
2023/03/06 09:41:43;;;;;;;11.45;8.13;;;;;;;13.10;35.84;96010.75;5093106;28;20402;-63
2023/03/06 09:44:16;;;;;;;12.27;8.10;;;;;;;13.13;35.81;96019.28;5092924;28;20044;-63
2023/03/06 09:47:00;;;;;;;13.07;8.52;;;;;;;13.15;34.83;96019.19;5092986;28;20054;-63
2023/03/06 09:49:46;;;;;;;14.77;8.20;;;;;;;12.69;34.03;96014.72;5092880;28;20487;-62
2023/03/06 09:52:30;;;;;;;13.27;9.00;;;;;;;12.41;35.50;96021.47;5092735;28;20495;-63
2023/03/06 09:55:02;;;;;;;15.30;8.85;;;;;;;12.40;35.48;96025.03;5092729;28;20048;-63
2023/03/06 09:57:34;;;;;;;15.65;9.27;;;;;;;12.34;36.01;96015.72;5092622;28;20048;-63
2023/03/06 10:00:05;;;;;;;12.50;9.13;;;;;;;12.40;37.55;96010.13;5096784;28;20131;-62
2023/03/06 10:02:36;;;;;;;;;;;;;;;12.47;39.48;96010.66;5097123;28;20056;-63
2023/03/06 10:05:08;;;;;;;13.25;8.90;;;;;;;12.49;37.87;96006.16;5096522;28;19923;-63
2023/03/06 10:07:46;;;;;;;14.82;9.02;;;;;;;12.78;38.56;96003.72;5096500;28;20131;-63
2023/03/06 10:10:19;;;;;;;13.90;9.13;;;;;;;12.91;36.84;95997.81;5096383;28;20101;-63
2023/03/06 10:12:53;;;;;;;14.45;9.85;;;;;;;12.47;39.26;96005.41;5096601;28;20135;-62
2023/03/06 10:15:25;;;;;;;14.60;8.85;;;;;;;12.83;36.73;96000.84;5096262;28;20051;-63
2023/03/06 10:17:52;;;;;;;15.68;9.18;;;;;;;12.71;37.22;95997.13;5096376;28;20059;-62
2023/03/06 10:20:22;;;;;;;16.50;9.40;;;;;;;12.81;38.70;95992.22;5096311;28;20075;-62
2023/03/06 10:23:23;;;;;;;12.10;9.30;;;;;;;13.08;38.35;95986.34;5096444;28;20048;-63
2023/03/06 10:25:56;;;;;;;14.73;8.75;;;;;;;13.33;37.38;95987.56;5091719;28;20044;-62
2023/03/06 10:28:29;;;;;;;15.98;8.25;;;;;;;13.32;36.23;95981.47;5096206;28;20136;-63
2023/03/06 10:31:03;;;;;;;12.35;8.90;;;;;;;13.26;36.99;95982.66;5096240;28;20048;-63
2023/03/06 10:33:44;;;;;;;12.52;7.63;;;;;;;13.07;35.68;95982.88;5095930;28;20405;-63
2023/03/06 10:36:15;;;;;;;11.32;8.38;;;;;;;13.07;35.81;95977.63;5095938;28;20044;-62
2023/03/06 10:38:47;;;;;;;14.00;9.00;;;;;;;12.99;34.15;95974.59;5096004;28;20136;-62
2023/03/06 10:41:24;;;;;;;12.77;8.30;;;;;;;12.77;36.76;95960.88;5095910;28;20070;-63
2023/03/06 10:44:20;;;;;;;14.95;8.48;;;;;;;12.73;36.75;95963.75;5096074;28;20040;-63
2023/03/06 10:46:50;;;;;;;11.93;8.23;;;;;;;12.81;37.71;95956.31;5095802;28;20056;-63
2023/03/06 10:49:27;;;;;;;11.20;7.80;;;;;;;12.96;38.42;95954.59;5095666;28;20054;-63
2023/03/06 10:52:00;;;;;;;12.27;9.43;;;;;;;13.22;38.83;95956.66;5095873;28;20055;-63
2023/03/06 10:54:30;;;;;;;10.95;8.20;;;;;;;13.48;37.14;95962.16;5095624;28;20080;-63
2023/03/06 10:56:57;;;;;;;11.90;8.80;;;;;;;13.46;37.70;95941.22;5095739;28;20079;-63
2023/03/06 10:59:27;;;;;;;13.05;8.65;;;;;;;13.51;38.00;95957.63;5095552;28;20524;-63
2023/03/06 11:01:56;;;;;;;12.23;8.80;;;;;;;13.63;38.25;95952.56;5095427;28;20044;-63
2023/03/06 11:04:26;;;;;;;12.07;7.60;;;;;;;13.56;35.71;95943.34;5095534;28;20043;-63
2023/03/06 11:07:06;;;;;;;16.08;8.57;;;;;;;13.73;34.88;95942.34;5095652;28;20085;-63
2023/03/06 11:09:35;;;;;;;14.23;8.38;;;;;;;13.58;35.60;95934.44;5094447;28;20101;-63
2023/03/06 11:12:25;;;;;;;13.85;8.90;;;;;;;13.56;39.95;95930.22;5095416;28;20048;-62
2023/03/06 11:15:21;;;;;;;12.30;8.53;;;;;;;13.41;36.99;95940.69;5095584;28;20086;-63
2023/03/06 11:17:52;;;;;;;13.20;8.05;;;;;;;13.40;37.70;95937.19;5095220;28;20359;-62
2023/03/06 11:20:20;;;;;;;;;;;;;;;13.53;35.70;95931.25;5095600;28;20083;-63
2023/03/06 11:22:50;;;;;;;13.45;6.53;;;;;;;13.64;34.45;95931.44;5095457;28;19920;-63
2023/03/06 11:25:22;;;;;;;11.40;7.72;;;;;;;13.56;37.46;95923.19;5095090;28;20075;-63
2023/03/06 11:27:57;;;;;;;12.18;7.32;;;;;;;13.32;35.22;95921.06;5095236;28;20136;-62
2023/03/06 11:30:30;;;;;;;11.25;7.80;;;;;;;13.36;37.27;95908.56;5094989;28;20044;-63
2023/03/06 11:33:00;;;;;;;11.70;7.85;;;;;;;13.35;35.17;95915.63;5094779;28;20482;-62
2023/03/06 11:35:34;;;;;;;10.35;7.43;;;;;;;13.21;36.76;95916.41;5094698;28;20101;-62
2023/03/06 11:38:07;;;;;;;12.10;7.60;;;;;;;13.21;36.09;95910.31;5094868;28;20044;-62
2023/03/06 11:40:41;;;;;;;13.65;9.15;;;;;;;13.34;38.03;95907.84;5094744;28;20044;-62